Time;durP1;ratioP1;P1;durP2;ratioP2;P2;SDS_P1;SDS_P2;PMS_P1;PMS_P2;Temp;Humidity;BMP_temperature;BMP_pressure;BME280_temperature;BME280_humidity;BME280_pressure;Samples;Min_cycle;Max_cycle;Signal;HPM_P1;HPM_P2
2023/03/29 00:00:44;;;;;;;;;;;19.90;32.60;;;;;;8331520;28;19928;-43
2023/03/29 00:04:44;;;;;;;;;;;19.90;32.60;;;;;;8331052;28;19925;-44
2023/03/29 00:08:45;;;;;;;;;;;19.90;32.70;;;;;;8331007;28;20349;-45
2023/03/29 00:12:46;;;;;;;;;;;19.90;32.70;;;;;;8331415;28;19925;-44
2023/03/29 00:16:46;;;;;;;;;;;19.90;32.70;;;;;;8330971;28;19924;-44
2023/03/29 00:20:53;;;;;;;;;;;19.80;32.60;;;;;;8330271;28;19921;-45
2023/03/29 00:24:54;;;;;;;;;;;19.80;32.60;;;;;;8330734;28;19932;-45
2023/03/29 00:28:55;;;;;;;;;;;19.80;32.60;;;;;;8330738;28;19913;-44
2023/03/29 00:32:55;;;;;;;;;;;19.80;33.20;;;;;;8330041;28;20004;-45
2023/03/29 00:36:56;;;;;;;;;;;19.80;32.70;;;;;;8330291;28;19921;-44
2023/03/29 00:40:57;;;;;;;;;;;19.80;32.70;;;;;;8330412;28;20270;-43
2023/03/29 00:45:07;;;;;;;;;;;19.80;32.70;;;;;;8330301;28;19922;-43
2023/03/29 00:49:11;;;;;;;;;;;19.80;32.70;;;;;;8330612;28;19913;-43
2023/03/29 00:53:16;;;;;;;;;;;19.80;32.80;;;;;;8329687;28;19924;-43
2023/03/29 00:57:17;;;;;;;;;;;19.70;32.70;;;;;;8330087;28;19917;-43
2023/03/29 01:01:24;;;;;;;;;;;19.70;32.70;;;;;;8333395;28;19920;-43
2023/03/29 01:05:29;;;;;;;;;;;19.80;32.80;;;;;;8357742;28;19925;-44
2023/03/29 01:09:32;;;;;;;;;;;19.70;32.70;;;;;;8329388;28;19976;-44
2023/03/29 01:13:34;;;;;;;;;;;19.70;32.80;;;;;;8330029;28;19921;-44
2023/03/29 01:17:35;;;;;;;;;;;19.70;32.80;;;;;;8329264;28;19918;-44
2023/03/29 01:21:42;;;;;;;;;;;19.70;32.80;;;;;;8329652;28;19971;-43
2023/03/29 01:26:02;;;;;;;;;;;19.70;32.80;;;;;;8329496;28;19984;-42
2023/03/29 01:30:06;;;;;;;;;;;19.70;32.80;;;;;;8329331;28;19920;-43
2023/03/29 01:34:13;;;;;;;;;;;19.70;32.90;;;;;;8329591;28;19913;-43
2023/03/29 01:38:26;;;;;;;;;;;19.70;33.00;;;;;;8331372;28;19917;-42
2023/03/29 01:42:30;;;;;;;;;;;19.60;32.80;;;;;;8335602;28;19964;-42
2023/03/29 01:46:39;;;;;;;;;;;19.60;32.80;;;;;;8335434;28;19917;-43
2023/03/29 01:50:43;;;;;;;;;;;19.60;32.80;;;;;;8334949;28;20366;-44
2023/03/29 01:54:50;;;;;;;;;;;19.60;32.90;;;;;;8336151;28;19913;-45
2023/03/29 01:58:52;;;;;;;;;;;19.60;32.90;;;;;;8335191;28;19983;-43
2023/03/29 02:02:54;;;;;;;;;;;19.60;32.90;;;;;;8334725;28;19948;-43
2023/03/29 02:06:56;;;;;;;;;;;19.60;32.90;;;;;;8335123;28;19988;-43
2023/03/29 02:10:56;;;;;;;;;;;19.60;32.90;;;;;;8334832;28;19951;-43
2023/03/29 02:14:57;;;;;;;;;;;19.60;32.90;;;;;;8334508;28;19913;-43
2023/03/29 02:18:58;;;;;;;;;;;19.60;33.00;;;;;;8334677;28;19925;-43
2023/03/29 02:23:14;;;;;;;;;;;19.60;33.00;;;;;;8334004;28;19928;-42
2023/03/29 02:27:14;;;;;;;;;;;19.60;33.00;;;;;;8334293;28;19921;-45
2023/03/29 02:31:38;;;;;;;;;;;19.50;32.90;;;;;;8334414;28;20359;-45
2023/03/29 02:35:47;;;;;;;;;;;19.50;32.90;;;;;;8322765;28;19928;-42
2023/03/29 02:39:48;;;;;;;;;;;19.50;32.90;;;;;;8334467;28;19952;-44
2023/03/29 02:43:49;;;;;;;;;;;19.50;33.00;;;;;;8333765;28;20389;-43
2023/03/29 02:47:53;;;;;;;;;;;19.50;33.00;;;;;;8333241;28;19963;-44
2023/03/29 02:51:56;;;;;;;;;;;19.50;33.00;;;;;;8333842;28;19913;-44
2023/03/29 02:55:56;;;;;;;;;;;19.50;33.00;;;;;;8333525;28;20039;-44
2023/03/29 02:59:57;;;;;;;;;;;19.50;33.00;;;;;;8333120;28;20357;-43
2023/03/29 03:03:58;;;;;;;;;;;19.50;33.00;;;;;;8333241;28;19925;-45
2023/03/29 03:07:58;;;;;;;;;;;19.40;33.00;;;;;;8332676;28;19919;-42
2023/03/29 03:11:58;;;;;;;;;;;19.50;33.00;;;;;;8333210;28;19921;-44
2023/03/29 03:16:00;;;;;;;;;;;19.40;32.90;;;;;;8332747;28;19959;-44
2023/03/29 03:20:00;;;;;;;;;;;19.40;32.90;;;;;;8332545;28;20067;-44
2023/03/29 03:24:00;;;;;;;;;;;19.50;33.00;;;;;;8332781;28;19997;-44
2023/03/29 03:28:01;;;;;;;;;;;19.40;33.00;;;;;;8314623;28;20378;-43
2023/03/29 03:32:02;;;;;;;;;;;19.40;32.90;;;;;;8331911;28;20007;-43
2023/03/29 03:36:05;;;;;;;;;;;19.40;32.90;;;;;;8332635;28;20004;-45
2023/03/29 03:40:07;;;;;;;;;;;19.40;33.00;;;;;;8332531;28;19982;-43
2023/03/29 03:44:07;;;;;;;;;;;19.40;33.00;;;;;;8331486;28;20408;-42
2023/03/29 03:48:08;;;;;;;;;;;19.40;33.00;;;;;;8331888;28;19917;-43
2023/03/29 03:52:08;;;;;;;;;;;19.40;33.00;;;;;;8331664;28;20012;-44
2023/03/29 03:56:09;;;;;;;;;;;19.50;33.00;;;;;;8330915;28;19918;-44
2023/03/29 04:00:19;;;;;;;;;;;19.40;33.00;;;;;;8331179;28;19913;-45
2023/03/29 04:04:21;;;;;;;;;;;19.50;33.00;;;;;;8310011;28;20016;-43
2023/03/29 04:08:21;;;;;;;;;;;19.50;33.00;;;;;;8318893;28;19917;-43
2023/03/29 04:12:21;;;;;;;;;;;19.50;33.00;;;;;;8331080;28;19917;-43
2023/03/29 04:16:22;;;;;;;;;;;19.60;33.00;;;;;;8330964;28;19919;-44
2023/03/29 04:20:23;;;;;;;;;;;19.70;33.00;;;;;;8330644;28;20264;-44
2023/03/29 04:24:24;;;;;;;;;;;19.80;33.00;;;;;;8330999;28;20054;-43
2023/03/29 04:28:24;;;;;;;;;;;19.90;33.00;;;;;;8330688;28;19913;-44
2023/03/29 04:32:24;;;;;;;;;;;19.90;32.90;;;;;;8330121;28;19932;-43
2023/03/29 04:36:25;;;;;;;;;;;20.00;32.80;;;;;;8330389;28;20270;-42
2023/03/29 04:40:26;;;;;;;;;;;20.10;32.70;;;;;;8330744;28;19975;-42
2023/03/29 04:44:26;;;;;;;;;;;20.20;32.80;;;;;;8329855;28;19925;-44
2023/03/29 04:48:29;;;;;;;;;;;20.30;32.70;;;;;;8330452;28;20008;-44
2023/03/29 04:52:31;;;;;;;;;;;20.30;32.70;;;;;;8330341;28;20006;-44
2023/03/29 04:56:32;;;;;;;;;;;20.30;32.70;;;;;;8329496;28;19925;-44
2023/03/29 05:00:33;;;;;;;;;;;20.30;32.80;;;;;;8330254;28;19936;-43
2023/03/29 05:04:34;;;;;;;;;;;20.30;32.70;;;;;;8329737;28;19932;-45
2023/03/29 05:08:38;;;;;;;;;;;20.30;32.70;;;;;;8329561;28;19918;-44
2023/03/29 05:12:38;;;;;;;;;;;20.30;32.70;;;;;;8331247;28;19920;-44
2023/03/29 05:16:39;;;;;;;;;;;20.30;32.70;;;;;;8336599;28;19979;-43
2023/03/29 05:20:41;;;;;;;;;;;20.20;32.70;;;;;;8336173;28;19918;-44
2023/03/29 05:24:41;;;;;;;;;;;20.20;32.70;;;;;;8336459;28;20003;-44
2023/03/29 05:28:41;;;;;;;;;;;20.20;32.90;;;;;;8336416;28;19917;-45
2023/03/29 05:32:42;;;;;;;;;;;20.20;32.80;;;;;;8335625;28;19917;-44
2023/03/29 05:36:44;;;;;;;;;;;20.20;32.80;;;;;;8335905;28;19913;-44
2023/03/29 05:40:44;;;;;;;;;;;20.20;32.90;;;;;;8336030;28;19917;-45
2023/03/29 05:44:45;;;;;;;;;;;20.20;32.90;;;;;;8335208;28;19926;-44
2023/03/29 05:48:46;;;;;;;;;;;20.10;32.90;;;;;;8335548;28;20293;-45
2023/03/29 05:52:46;;;;;;;;;;;20.10;33.00;;;;;;8335428;28;19921;-43
2023/03/29 05:56:47;;;;;;;;;;;20.20;33.00;;;;;;8334791;28;19939;-43
2023/03/29 06:00:48;;;;;;;;;;;20.20;33.00;;;;;;8335591;28;20401;-44
2023/03/29 06:04:49;;;;;;;;;;;20.20;33.00;;;;;;8335393;28;19925;-43
2023/03/29 06:08:49;;;;;;;;;;;20.30;33.00;;;;;;8334726;28;19924;-45
2023/03/29 06:12:50;;;;;;;;;;;20.30;32.90;;;;;;8335167;28;19968;-44
2023/03/29 06:16:50;;;;;;;;;;;20.40;32.90;;;;;;8334685;28;19917;-43
2023/03/29 06:20:52;;;;;;;;;;;20.40;32.80;;;;;;8334224;28;19913;-44
2023/03/29 06:24:53;;;;;;;;;;;20.40;32.80;;;;;;8333980;28;19929;-44
2023/03/29 06:28:53;;;;;;;;;;;20.40;32.80;;;;;;8334304;28;19917;-43
2023/03/29 06:32:54;;;;;;;;;;;20.50;32.80;;;;;;8333918;28;19917;-45
2023/03/29 06:36:55;;;;;;;;;;;20.50;32.80;;;;;;8334418;28;19967;-43
2023/03/29 06:40:59;;;;;;;;;;;20.50;32.70;;;;;;8334409;28;19913;-45
2023/03/29 06:44:59;;;;;;;;;;;20.50;32.80;;;;;;8333422;28;20352;-44
2023/03/29 06:49:00;;;;;;;;;;;20.50;32.80;;;;;;8333709;28;19925;-45
2023/03/29 06:53:01;;;;;;;;;;;20.50;32.80;;;;;;8333335;28;20012;-43
2023/03/29 06:57:03;;;;;;;;;;;20.50;32.90;;;;;;8333784;28;19913;-45
2023/03/29 07:01:03;;;;;;;;;;;20.40;32.80;;;;;;8333373;28;19913;-43
2023/03/29 07:05:10;;;;;;;;;;;20.40;32.80;;;;;;8332594;28;20337;-44
2023/03/29 07:09:11;;;;;;;;;;;20.40;32.90;;;;;;8331888;28;19917;-44
2023/03/29 07:13:12;;;;;;;;;;;20.30;32.90;;;;;;8333080;28;19925;-43
2023/03/29 07:17:13;;;;;;;;;;;20.30;32.90;;;;;;8332334;28;19935;-44
2023/03/29 07:21:14;;;;;;;;;;;20.30;32.90;;;;;;8333212;28;19959;-44
2023/03/29 07:25:16;;;;;;;;;;;20.30;33.00;;;;;;8332484;28;19925;-44
2023/03/29 07:29:16;;;;;;;;;;;20.30;32.90;;;;;;8332030;28;20000;-45
2023/03/29 07:33:17;;;;;;;;;;;20.20;32.80;;;;;;8332694;28;19940;-44
2023/03/29 07:37:17;;;;;;;;;;;20.30;32.90;;;;;;8331665;28;19919;-44
2023/03/29 07:41:18;;;;;;;;;;;20.20;32.90;;;;;;8331855;28;19928;-44
2023/03/29 07:45:19;;;;;;;;;;;20.20;33.00;;;;;;8332066;28;20297;-44
2023/03/29 07:49:20;;;;;;;;;;;20.20;33.50;;;;;;8332256;28;19918;-46
2023/03/29 07:53:20;;;;;;;;;;;20.20;32.90;;;;;;8331228;28;20275;-44
2023/03/29 07:57:21;;;;;;;;;;;20.20;32.90;;;;;;8331765;28;19920;-45
2023/03/29 08:01:22;;;;;;;;;;;20.20;33.00;;;;;;8313586;28;20384;-44
2023/03/29 08:05:22;;;;;;;;;;;20.20;32.90;;;;;;8331023;28;19925;-44
2023/03/29 08:09:22;;;;;;;;;;;20.20;33.00;;;;;;8331536;28;20500;-43
2023/03/29 08:13:23;;;;;;;;;;;20.20;33.00;;;;;;8331320;28;19953;-45
2023/03/29 08:17:23;;;;;;;;;;;20.20;33.00;;;;;;8330861;28;19948;-44
2023/03/29 08:21:24;;;;;;;;;;;20.20;33.00;;;;;;8330859;28;19929;-45
2023/03/29 08:25:24;;;;;;;;;;;20.20;33.00;;;;;;8330859;28;19917;-44
2023/03/29 08:29:25;;;;;;;;;;;20.20;33.00;;;;;;8330208;28;19917;-45
2023/03/29 08:33:26;;;;;;;;;;;20.20;33.00;;;;;;8330543;28;19963;-44
2023/03/29 08:37:26;;;;;;;;;;;20.20;32.90;;;;;;8330960;28;19917;-44
2023/03/29 08:41:46;;;;;;;;;;;20.20;32.90;;;;;;8329577;28;19917;-44
2023/03/29 08:45:55;;;;;;;;;;;20.20;32.90;;;;;;8330089;28;20109;-45
2023/03/29 08:49:56;;;;;;;;;;;20.20;32.90;;;;;;8330441;28;19960;-44
2023/03/29 08:53:59;;;;;;;;;;;20.20;32.90;;;;;;8329631;28;19932;-44
2023/03/29 08:58:01;;;;;;;;;;;20.20;32.90;;;;;;8330054;28;19939;-44
2023/03/29 09:02:03;;;;;;;;;;;20.20;32.90;;;;;;8330027;28;19980;-45
2023/03/29 09:06:05;;;;;;;;;;;20.20;32.90;;;;;;8329889;28;19917;-43
2023/03/29 09:10:11;;;;;;;;;;;20.20;32.90;;;;;;8329973;28;19924;-45
2023/03/29 09:14:21;;;;;;;;;;;20.20;32.90;;;;;;8329422;28;19921;-44
2023/03/29 09:18:34;;;;;;;;;;;20.20;33.00;;;;;;8312038;28;19917;-44
2023/03/29 09:22:54;;;;;;;;;;;20.20;32.90;;;;;;8330180;28;19963;-44
2023/03/29 09:27:07;;;;;;;;;;;20.20;32.90;;;;;;8329100;28;19917;-44
2023/03/29 09:31:13;;;;;;;;;;;20.20;33.00;;;;;;8329632;28;19918;-44
2023/03/29 09:35:17;;;;;;;;;;;20.20;33.00;;;;;;8329064;28;19924;-44
2023/03/29 09:39:22;;;;;;;;;;;20.20;33.00;;;;;;8329301;28;19917;-44
2023/03/29 09:43:30;;;;;;;;;;;20.20;33.00;;;;;;8329292;28;20405;-44
2023/03/29 09:47:36;;;;;;;;;;;20.20;33.00;;;;;;8329046;28;19913;-45
2023/03/29 09:51:37;;;;;;;;;;;20.20;33.00;;;;;;8329111;28;20298;-44
2023/03/29 09:55:39;;;;;;;;;;;20.20;33.00;;;;;;8329065;28;19917;-44
2023/03/29 09:59:40;;;;;;;;;;;20.20;33.00;;;;;;8331291;28;19964;-44
2023/03/29 10:03:41;;;;;;;;;;;20.20;33.10;;;;;;8335165;28;20344;-44
2023/03/29 10:07:45;;;;;;;;;;;20.20;33.10;;;;;;8334410;28;20294;-45
2023/03/29 10:11:46;;;;;;;;;;;20.20;33.10;;;;;;8334374;28;19921;-44
2023/03/29 10:16:00;;;;;;;;;;;20.20;33.00;;;;;;8334563;28;19927;-43
2023/03/29 10:20:03;;;;;;;;;;;20.20;33.10;;;;;;8334135;28;19963;-42
2023/03/29 10:24:03;;;;;;;;;;;20.20;33.10;;;;;;8334390;28;19979;-43
2023/03/29 10:28:12;;;;;;;;;;;20.20;33.00;;;;;;8334807;28;19913;-46
2023/03/29 10:32:21;;;;;;;;;;;20.20;33.00;;;;;;8333880;28;19940;-44
2023/03/29 10:36:22;;;;;;;;;;;20.20;33.00;;;;;;8334081;28;19917;-45
2023/03/29 10:40:30;;;;;;;;;;;20.30;33.10;;;;;;8333790;28;19945;-43
2023/03/29 10:44:32;;;;;;;;;;;20.30;33.00;;;;;;8333072;28;19933;-45
2023/03/29 10:48:33;;;;;;;;;;;20.30;33.00;;;;;;8340691;28;19924;-44
2023/03/29 10:52:34;;;;;;;;;;;20.30;33.00;;;;;;8333755;28;19967;-44
2023/03/29 10:56:38;;;;;;;;;;;20.30;33.00;;;;;;8332817;28;19917;-44
2023/03/29 11:00:45;;;;;;;;;;;20.20;33.00;;;;;;8333434;28;19917;-45
2023/03/29 11:04:59;;;;;;;;;;;20.30;33.00;;;;;;8333079;28;19971;-45
2023/03/29 11:09:00;;;;;;;;;;;20.30;33.00;;;;;;8332458;28;19913;-44
2023/03/29 11:13:19;;;;;;;;;;;20.30;33.00;;;;;;8332143;28;20369;-44
2023/03/29 11:17:33;;;;;;;;;;;20.30;33.00;;;;;;8332374;28;19961;-44
2023/03/29 11:21:41;;;;;;;;;;;20.40;33.00;;;;;;8332552;28;19917;-44
2023/03/29 11:25:49;;;;;;;;;;;20.40;33.10;;;;;;8332761;28;19987;-44
2023/03/29 11:29:57;;;;;;;;;;;20.40;33.00;;;;;;8332118;28;20012;-45
2023/03/29 11:34:04;;;;;;;;;;;20.40;33.00;;;;;;8332366;28;19920;-45
2023/03/29 11:38:23;;;;;;;;;;;20.40;33.00;;;;;;8332255;28;19913;-44
2023/03/29 11:42:28;;;;;;;;;;;20.40;33.00;;;;;;8332145;28;19932;-44
2023/03/29 11:46:34;;;;;;;;;;;20.40;33.00;;;;;;8331931;28;20431;-44
2023/03/29 11:50:40;;;;;;;;;;;20.50;33.00;;;;;;8332400;28;19945;-44
2023/03/29 11:54:44;;;;;;;;;;;20.50;33.00;;;;;;8331879;28;20016;-45
2023/03/29 11:58:50;;;;;;;;;;;20.50;33.00;;;;;;8331760;28;19913;-45
2023/03/29 12:02:55;;;;;;;;;;;20.50;32.90;;;;;;8330728;28;20305;-45
2023/03/29 12:07:05;;;;;;;;;;;20.50;32.90;;;;;;8330842;28;19917;-45
2023/03/29 12:11:05;;;;;;;;;;;20.50;32.80;;;;;;8330733;28;19913;-45
2023/03/29 12:15:12;;;;;;;;;;;20.60;32.90;;;;;;8331009;28;20015;-45
2023/03/29 12:19:18;;;;;;;;;;;20.60;32.90;;;;;;8331008;28;20283;-46
2023/03/29 12:23:18;;;;;;;;;;;20.60;32.90;;;;;;8330069;28;20410;-45
2023/03/29 12:27:25;;;;;;;;;;;20.60;32.90;;;;;;8330711;28;19971;-44
2023/03/29 12:31:36;;;;;;;;;;;20.50;32.80;;;;;;8330716;28;20001;-45
2023/03/29 12:36:04;;;;;;;;;;;20.60;32.90;;;;;;8330011;28;19928;-45
2023/03/29 12:40:16;;;;;;;;;;;20.60;32.90;;;;;;8330594;28;19913;-45
2023/03/29 12:44:19;;;;;;;;;;;20.60;32.80;;;;;;8330037;28;20087;-45
2023/03/29 12:48:26;;;;;;;;;;;20.60;32.80;;;;;;8330645;28;19917;-44
2023/03/29 12:52:30;;;;;;;;;;;20.60;32.80;;;;;;8330194;28;20299;-44
2023/03/29 12:56:35;;;;;;;;;;;20.60;32.80;;;;;;8329414;28;19917;-46
2023/03/29 13:00:35;;;;;;;;;;;20.60;32.80;;;;;;8329697;28;19917;-44
2023/03/29 13:04:37;;;;;;;;;;;20.70;32.80;;;;;;8329556;28;19929;-44
2023/03/29 13:08:42;;;;;;;;;;;20.60;32.80;;;;;;8324562;28;19921;-46
2023/03/29 13:12:44;;;;;;;;;;;20.70;32.80;;;;;;8323548;28;20360;-44
2023/03/29 13:16:45;;;;;;;;;;;20.60;32.90;;;;;;8329739;28;19913;-45
2023/03/29 13:20:51;;;;;;;;;;;20.70;32.90;;;;;;8328917;28;20469;-45
2023/03/29 13:25:00;;;;;;;;;;;20.60;32.80;;;;;;8329149;28;19921;-46
2023/03/29 13:29:11;;;;;;;;;;;20.70;33.40;;;;;;8329135;28;20004;-45
2023/03/29 13:33:20;;;;;;;;;;;20.70;32.80;;;;;;8329930;28;19959;-45
2023/03/29 13:37:50;;;;;;;;;;;20.70;32.80;;;;;;8335741;28;19917;-46
2023/03/29 13:41:53;;;;;;;;;;;20.60;32.80;;;;;;8334845;28;19982;-45
2023/03/29 13:45:53;;;;;;;;;;;20.70;32.80;;;;;;8335312;28;19913;-45
2023/03/29 13:49:56;;;;;;;;;;;20.70;32.90;;;;;;8335132;28;19924;-47
2023/03/29 13:54:04;;;;;;;;;;;20.70;32.90;;;;;;8334934;28;19979;-45
2023/03/29 13:58:31;;;;;;;;;;;20.60;32.90;;;;;;8335242;28;20302;-45
2023/03/29 14:02:32;;;;;;;;;;;20.70;33.00;;;;;;8304038;28;19925;-48
2023/03/29 14:06:35;;;;;;;;;;;20.70;32.90;;;;;;8334762;28;19917;-44
2023/03/29 14:10:39;;;;;;;;;;;20.70;32.80;;;;;;8334820;28;19967;-47
2023/03/29 14:14:42;;;;;;;;;;;20.70;32.80;;;;;;8334332;28;20351;-45
2023/03/29 14:18:45;;;;;;;;;;;20.70;32.80;;;;;;8334659;28;19974;-44
2023/03/29 14:22:45;;;;;;;;;;;20.70;32.80;;;;;;8334498;28;20012;-45
2023/03/29 14:26:46;;;;;;;;;;;20.70;32.80;;;;;;8333643;28;20370;-44
2023/03/29 14:30:46;;;;;;;;;;;20.70;32.80;;;;;;8334393;28;19966;-45
2023/03/29 14:34:48;;;;;;;;;;;20.70;32.70;;;;;;8334478;28;19975;-45
2023/03/29 14:38:49;;;;;;;;;;;20.70;32.80;;;;;;8333482;28;20374;-46
2023/03/29 14:42:50;;;;;;;;;;;20.70;33.40;;;;;;8333592;28;19979;-44
2023/03/29 14:46:50;;;;;;;;;;;20.70;32.80;;;;;;8333163;28;20332;-46
2023/03/29 14:50:51;;;;;;;;;;;20.70;32.60;;;;;;8333491;28;19931;-45
2023/03/29 14:54:55;;;;;;;;;;;20.70;32.60;;;;;;8333767;28;20378;-45
2023/03/29 14:58:56;;;;;;;;;;;20.70;32.70;;;;;;8333342;28;19917;-44
2023/03/29 15:03:00;;;;;;;;;;;20.70;32.60;;;;;;8332514;28;20012;-45
2023/03/29 15:07:01;;;;;;;;;;;20.70;32.60;;;;;;8332937;28;19966;-45
2023/03/29 15:11:09;;;;;;;;;;;20.70;32.80;;;;;;8332461;28;20364;-45
2023/03/29 15:15:11;;;;;;;;;;;20.80;32.90;;;;;;8333278;28;20341;-46
2023/03/29 15:19:14;;;;;;;;;;;20.80;32.80;;;;;;8332973;28;19925;-45
2023/03/29 15:23:14;;;;;;;;;;;20.90;32.80;;;;;;8331972;28;19964;-44
2023/03/29 15:27:16;;;;;;;;;;;21.00;32.70;;;;;;8332365;28;19917;-45
2023/03/29 15:31:18;;;;;;;;;;;21.00;32.60;;;;;;8332324;28;19918;-45
2023/03/29 15:35:23;;;;;;;;;;;21.10;32.80;;;;;;8331825;28;20450;-44
2023/03/29 15:39:24;;;;;;;;;;;21.10;32.80;;;;;;8332420;28;19939;-45
2023/03/29 15:43:25;;;;;;;;;;;21.20;32.70;;;;;;8331957;28;19925;-46
2023/03/29 15:47:26;;;;;;;;;;;21.20;32.70;;;;;;8331385;28;19921;-44
2023/03/29 15:51:27;;;;;;;;;;;21.30;32.70;;;;;;8331949;28;20031;-45
2023/03/29 15:55:28;;;;;;;;;;;21.30;32.70;;;;;;8331646;28;19947;-45
2023/03/29 15:59:32;;;;;;;;;;;21.30;32.70;;;;;;8330519;28;19939;-45
2023/03/29 16:03:32;;;;;;;;;;;21.30;32.70;;;;;;8311307;28;19926;-45
2023/03/29 16:07:33;;;;;;;;;;;21.40;32.60;;;;;;8317597;28;19961;-44
2023/03/29 16:11:33;;;;;;;;;;;21.40;32.60;;;;;;8320339;28;20366;-44
2023/03/29 16:15:35;;;;;;;;;;;21.40;32.60;;;;;;8329075;28;20018;-46
2023/03/29 16:19:36;;;;;;;;;;;21.40;32.60;;;;;;8310599;28;19917;-45
2023/03/29 16:23:36;;;;;;;;;;;21.40;33.10;;;;;;8326724;28;20351;-45
2023/03/29 16:27:37;;;;;;;;;;;21.40;32.60;;;;;;8328273;28;20004;-43
2023/03/29 16:31:38;;;;;;;;;;;21.40;32.50;;;;;;8316721;28;19920;-45
2023/03/29 16:35:38;;;;;;;;;;;21.30;32.50;;;;;;8326847;28;19945;-44
2023/03/29 16:39:39;;;;;;;;;;;21.30;32.60;;;;;;8326207;28;19917;-44
2023/03/29 16:43:39;;;;;;;;;;;21.30;32.60;;;;;;8328917;28;20441;-45
2023/03/29 16:47:43;;;;;;;;;;;21.30;32.70;;;;;;8327551;28;19921;-44
2023/03/29 16:51:45;;;;;;;;;;;21.20;32.80;;;;;;8324166;28;19913;-42
2023/03/29 16:55:46;;;;;;;;;;;21.30;32.80;;;;;;8328625;28;19925;-45
2023/03/29 16:59:46;;;;;;;;;;;21.30;32.80;;;;;;8327107;28;20374;-46
2023/03/29 17:03:47;;;;;;;;;;;21.30;32.80;;;;;;8323672;28;20024;-45
2023/03/29 17:07:47;;;;;;;;;;;21.20;32.80;;;;;;8328116;28;20290;-46
2023/03/29 17:11:47;;;;;;;;;;;21.20;32.80;;;;;;8313415;28;19999;-46
2023/03/29 17:15:51;;;;;;;;;;;21.20;32.80;;;;;;8336470;28;19921;-46
2023/03/29 17:19:51;;;;;;;;;;;21.20;32.80;;;;;;8318760;28;19964;-45
2023/03/29 17:23:52;;;;;;;;;;;21.20;32.80;;;;;;8327753;28;19984;-46
2023/03/29 17:27:52;;;;;;;;;;;21.20;32.80;;;;;;8308457;28;19917;-45
2023/03/29 17:31:53;;;;;;;;;;;21.20;32.80;;;;;;8319957;28;19956;-44
2023/03/29 17:35:54;;;;;;;;;;;21.20;32.90;;;;;;8333627;28;20402;-45
2023/03/29 17:39:55;;;;;;;;;;;21.20;32.90;;;;;;8331603;28;19936;-46
2023/03/29 17:43:55;;;;;;;;;;;21.20;32.90;;;;;;8325400;28;19980;-45
2023/03/29 17:47:56;;;;;;;;;;;21.20;32.90;;;;;;8330955;28;20433;-45
2023/03/29 17:51:56;;;;;;;;;;;21.20;32.90;;;;;;8335564;28;19917;-45
2023/03/29 17:55:57;;;;;;;;;;;21.20;32.90;;;;;;8335903;28;20337;-46
2023/03/29 17:59:57;;;;;;;;;;;21.20;32.90;;;;;;8335155;28;19939;-45
2023/03/29 18:03:57;;;;;;;;;;;21.20;33.00;;;;;;8334940;28;20059;-45
2023/03/29 18:07:58;;;;;;;;;;;21.20;33.00;;;;;;8335079;28;19913;-45
2023/03/29 18:11:58;;;;;;;;;;;21.20;33.10;;;;;;8335079;28;19917;-45
2023/03/29 18:15:59;;;;;;;;;;;21.20;33.10;;;;;;8335118;28;19913;-44
2023/03/29 18:20:00;;;;;;;;;;;21.20;33.10;;;;;;8333522;28;19952;-44
2023/03/29 18:24:00;;;;;;;;;;;21.20;33.10;;;;;;8334790;28;19939;-44
2023/03/29 18:28:00;;;;;;;;;;;21.20;33.10;;;;;;8334481;28;19913;-44
2023/03/29 18:32:01;;;;;;;;;;;21.20;33.10;;;;;;8333914;28;19940;-44
2023/03/29 18:36:06;;;;;;;;;;;21.20;33.10;;;;;;8334100;28;20278;-45
2023/03/29 18:40:07;;;;;;;;;;;21.20;33.10;;;;;;8333787;28;19925;-45
2023/03/29 18:44:07;;;;;;;;;;;21.20;33.20;;;;;;8333452;28;20450;-45
2023/03/29 18:48:08;;;;;;;;;;;21.10;33.20;;;;;;8333827;28;19917;-44
2023/03/29 18:52:08;;;;;;;;;;;21.20;33.30;;;;;;8333704;28;19999;-44
2023/03/29 18:56:10;;;;;;;;;;;21.10;33.10;;;;;;8333350;28;19921;-45
2023/03/29 19:00:13;;;;;;;;;;;21.10;33.20;;;;;;8333330;28;20363;-45
2023/03/29 19:04:14;;;;;;;;;;;21.20;33.40;;;;;;8332101;28;19932;-45
2023/03/29 19:08:15;;;;;;;;;;;21.20;33.30;;;;;;8332783;28;19913;-45
2023/03/29 19:12:15;;;;;;;;;;;21.20;33.40;;;;;;8332840;28;19976;-45
2023/03/29 19:16:16;;;;;;;;;;;21.20;33.90;;;;;;8333094;28;19999;-45
2023/03/29 19:20:17;;;;;;;;;;;21.20;33.30;;;;;;8332495;28;20370;-45
2023/03/29 19:24:17;;;;;;;;;;;21.20;33.40;;;;;;8332719;28;19955;-45
2023/03/29 19:28:18;;;;;;;;;;;21.10;33.40;;;;;;8332916;28;20313;-46
2023/03/29 19:32:18;;;;;;;;;;;21.10;33.30;;;;;;8330927;28;19925;-43
2023/03/29 19:36:18;;;;;;;;;;;21.10;33.40;;;;;;8332837;28;19918;-45
2023/03/29 19:40:19;;;;;;;;;;;21.10;33.50;;;;;;8332397;28;19924;-44
2023/03/29 19:44:22;;;;;;;;;;;21.20;33.60;;;;;;8331755;28;19925;-43
2023/03/29 19:48:22;;;;;;;;;;;21.10;33.60;;;;;;8332223;28;19983;-44
2023/03/29 19:52:23;;;;;;;;;;;21.10;33.50;;;;;;8332040;28;19917;-44
2023/03/29 19:56:24;;;;;;;;;;;21.10;33.50;;;;;;8331441;28;20008;-43
2023/03/29 20:00:26;;;;;;;;;;;21.10;33.50;;;;;;8331507;28;19940;-43
2023/03/29 20:04:27;;;;;;;;;;;21.10;33.50;;;;;;8331370;28;19925;-45
2023/03/29 20:08:27;;;;;;;;;;;21.10;33.60;;;;;;8330827;28;19917;-45
2023/03/29 20:12:28;;;;;;;;;;;21.10;33.60;;;;;;8331474;28;20004;-45
2023/03/29 20:16:33;;;;;;;;;;;21.10;33.60;;;;;;8331265;28;19914;-44
2023/03/29 20:20:34;;;;;;;;;;;21.10;33.60;;;;;;8330466;28;19924;-44
2023/03/29 20:24:35;;;;;;;;;;;21.10;33.60;;;;;;8330673;28;19933;-42
2023/03/29 20:28:38;;;;;;;;;;;21.10;33.70;;;;;;8330852;28;19928;-44
2023/03/29 20:32:38;;;;;;;;;;;21.10;33.80;;;;;;8330143;28;19917;-44
2023/03/29 20:36:39;;;;;;;;;;;21.10;33.70;;;;;;8331044;28;19945;-43
2023/03/29 20:40:39;;;;;;;;;;;21.10;33.70;;;;;;8330650;28;20370;-45
2023/03/29 20:44:40;;;;;;;;;;;21.10;33.70;;;;;;8329363;28;19979;-44
2023/03/29 20:48:52;;;;;;;;;;;21.10;33.70;;;;;;8330261;28;19917;-43
2023/03/29 20:52:54;;;;;;;;;;;21.10;33.80;;;;;;8330123;28;19972;-44
2023/03/29 20:56:54;;;;;;;;;;;21.10;33.80;;;;;;8329846;28;19914;-44
2023/03/29 21:00:57;;;;;;;;;;;21.10;33.90;;;;;;8330031;28;19921;-45
2023/03/29 21:04:59;;;;;;;;;;;21.10;33.90;;;;;;8329735;28;19976;-45
2023/03/29 21:09:01;;;;;;;;;;;21.10;34.00;;;;;;8328798;28;25896;-44
2023/03/29 21:13:01;;;;;;;;;;;21.10;34.00;;;;;;8330073;28;19914;-43
2023/03/29 21:17:02;;;;;;;;;;;21.10;33.90;;;;;;8360450;28;19917;-45
2023/03/29 21:21:06;;;;;;;;;;;21.10;33.90;;;;;;8335604;28;19924;-44
2023/03/29 21:25:08;;;;;;;;;;;21.10;33.90;;;;;;8329832;28;19971;-44
2023/03/29 21:29:09;;;;;;;;;;;21.10;33.90;;;;;;8329150;28;20012;-42
2023/03/29 21:33:09;;;;;;;;;;;21.10;33.90;;;;;;8329594;28;20317;-44
2023/03/29 21:37:10;;;;;;;;;;;21.20;34.00;;;;;;8329693;28;20293;-45
2023/03/29 21:41:11;;;;;;;;;;;21.10;33.90;;;;;;8328870;28;20361;-44
2023/03/29 21:45:11;;;;;;;;;;;21.10;34.00;;;;;;8329573;28;20083;-44
2023/03/29 21:49:12;;;;;;;;;;;21.10;34.00;;;;;;8329317;28;19948;-45
2023/03/29 21:53:12;;;;;;;;;;;21.10;33.90;;;;;;8328934;28;19966;-45
2023/03/29 21:57:12;;;;;;;;;;;21.10;33.90;;;;;;8334633;28;19919;-46
2023/03/29 22:01:13;;;;;;;;;;;21.10;33.90;;;;;;8343076;28;19917;-45
2023/03/29 22:05:13;;;;;;;;;;;21.00;33.90;;;;;;8350117;28;20298;-45
2023/03/29 22:09:14;;;;;;;;;;;21.00;34.00;;;;;;8316028;28;19917;-45
2023/03/29 22:13:15;;;;;;;;;;;21.00;34.00;;;;;;8335028;28;19917;-45
2023/03/29 22:17:16;;;;;;;;;;;21.00;33.90;;;;;;8334651;28;19920;-45
2023/03/29 22:21:23;;;;;;;;;;;21.00;34.00;;;;;;8334624;28;19917;-45
2023/03/29 22:25:24;;;;;;;;;;;21.00;34.00;;;;;;8334673;28;19993;-44
2023/03/29 22:29:24;;;;;;;;;;;21.00;34.10;;;;;;8333940;28;20305;-43
2023/03/29 22:33:26;;;;;;;;;;;21.00;34.00;;;;;;8334288;28;20378;-44
2023/03/29 22:37:26;;;;;;;;;;;21.00;34.00;;;;;;8334540;28;20028;-45
2023/03/29 22:41:27;;;;;;;;;;;20.90;33.90;;;;;;8333758;28;19917;-45
2023/03/29 22:45:27;;;;;;;;;;;20.90;33.90;;;;;;8334236;28;20328;-44
2023/03/29 22:49:27;;;;;;;;;;;20.90;34.00;;;;;;8333953;28;20366;-44
2023/03/29 22:53:28;;;;;;;;;;;20.90;34.00;;;;;;8333286;28;19996;-45
2023/03/29 22:57:28;;;;;;;;;;;20.90;34.00;;;;;;8334224;28;19936;-44
2023/03/29 23:01:29;;;;;;;;;;;20.90;34.10;;;;;;8333623;28;20000;-43
2023/03/29 23:05:29;;;;;;;;;;;20.90;34.20;;;;;;8332654;28;19925;-46
2023/03/29 23:09:30;;;;;;;;;;;20.90;34.30;;;;;;8333712;28;20012;-45
2023/03/29 23:13:32;;;;;;;;;;;20.80;34.20;;;;;;8333633;28;19920;-44
2023/03/29 23:17:33;;;;;;;;;;;20.90;34.10;;;;;;8353657;28;19916;-44
2023/03/29 23:21:35;;;;;;;;;;;20.90;34.20;;;;;;8341158;28;19917;-45
2023/03/29 23:25:36;;;;;;;;;;;20.90;34.30;;;;;;8332996;28;20416;-45
2023/03/29 23:29:36;;;;;;;;;;;20.80;34.20;;;;;;8332232;28;19921;-45